Time;durP1;ratioP1;P1;durP2;ratioP2;P2;SDS_P1;SDS_P2;PMS_P1;PMS_P2;Temp;Humidity;BMP_temperature;BMP_pressure;BME280_temperature;BME280_humidity;BME280_pressure;Samples;Min_cycle;Max_cycle;Signal;HPM_P1;HPM_P2
2021/01/13 00:02:08;;;;;;;4.20;1.90;;;17.00;99.90;;;;;;5073288;28;20031;-71
2021/01/13 00:04:35;;;;;;;3.85;1.90;;;16.90;99.90;;;;;;5072771;28;20025;-72
2021/01/13 00:07:01;;;;;;;4.18;2.05;;;16.90;99.90;;;;;;5073838;28;20476;-72
2021/01/13 00:09:27;;;;;;;4.47;2.22;;;16.90;99.90;;;;;;5073225;28;20109;-71
2021/01/13 00:11:56;;;;;;;4.78;2.22;;;16.80;99.90;;;;;;5072720;28;20103;-70
2021/01/13 00:14:23;;;;;;;2.63;1.67;;;16.80;99.90;;;;;;5073481;28;20078;-71
2021/01/13 00:16:50;;;;;;;5.43;2.10;;;16.80;99.90;;;;;;5073136;28;20085;-71
2021/01/13 00:19:15;;;;;;;4.40;1.95;;;16.70;99.90;;;;;;5073207;28;20029;-73
2021/01/13 00:21:46;;;;;;;3.60;2.13;;;16.70;99.90;;;;;;5072978;28;20350;-73
2021/01/13 00:24:12;;;;;;;3.60;1.88;;;16.70;99.90;;;;;;5073258;28;20024;-73
2021/01/13 00:26:37;;;;;;;2.63;1.65;;;16.60;99.90;;;;;;5072445;28;20036;-72
2021/01/13 00:29:03;;;;;;;2.75;2.10;;;16.60;99.90;;;;;;5073275;28;20012;-72
2021/01/13 00:31:29;;;;;;;5.72;2.10;;;16.60;99.90;;;;;;5072523;28;20434;-71
2021/01/13 00:33:55;;;;;;;6.10;2.00;;;16.50;99.90;;;;;;5072676;28;20093;-71
2021/01/13 00:36:25;;;;;;;4.13;1.90;;;16.50;99.90;;;;;;5072800;28;20024;-70
2021/01/13 00:38:51;;;;;;;3.67;2.00;;;16.50;99.90;;;;;;5072579;28;20021;-70
2021/01/13 00:41:17;;;;;;;3.53;2.00;;;16.50;99.90;;;;;;5073031;28;20055;-72
2021/01/13 00:43:44;;;;;;;4.00;2.03;;;16.40;99.90;;;;;;5072323;28;20426;-71
2021/01/13 00:46:10;;;;;;;3.78;1.90;;;16.40;99.90;;;;;;5072683;28;20066;-71
2021/01/13 00:48:36;;;;;;;3.97;1.90;;;16.40;99.90;;;;;;5072094;28;20070;-71
2021/01/13 00:51:02;;;;;;;3.75;2.15;;;16.30;99.90;;;;;;5072311;28;20392;-71
2021/01/13 00:53:28;;;;;;;4.25;2.10;;;16.40;99.90;;;;;;5073008;28;20031;-72
2021/01/13 00:55:53;;;;;;;3.53;1.85;;;16.30;99.90;;;;;;5072416;28;20013;-72
2021/01/13 00:58:21;;;;;;;3.03;1.90;;;16.30;99.90;;;;;;5072379;28;20032;-71
2021/01/13 01:00:46;;;;;;;3.03;1.90;;;16.30;99.90;;;;;;5071725;28;20020;-73
2021/01/13 01:03:12;;;;;;;3.15;1.90;;;16.20;99.90;;;;;;5072323;28;20048;-71
2021/01/13 01:05:37;;;;;;;4.35;2.10;;;16.20;99.90;;;;;;5072086;28;20035;-72
2021/01/13 01:08:03;;;;;;;5.78;2.10;;;16.10;99.90;;;;;;5072014;28;20024;-73
2021/01/13 01:10:32;;;;;;;3.90;1.90;;;16.10;99.90;;;;;;5072446;28;20036;-72
2021/01/13 01:12:58;;;;;;;4.35;1.98;;;16.10;99.90;;;;;;5072316;28;20028;-72
2021/01/13 01:15:24;;;;;;;4.88;2.03;;;16.10;99.90;;;;;;5070680;28;20032;-73
2021/01/13 01:17:51;;;;;;;4.10;2.00;;;16.10;99.90;;;;;;5070172;28;20392;-72
2021/01/13 01:20:16;;;;;;;4.28;2.10;;;16.00;99.90;;;;;;5071825;28;20027;-73
2021/01/13 01:23:01;;;;;;;3.28;1.75;;;16.00;99.90;;;;;;5071772;28;20383;-73
2021/01/13 01:25:28;;;;;;;3.90;1.90;;;16.00;99.90;;;;;;5072071;28;20384;-73
2021/01/13 01:27:56;;;;;;;4.47;2.25;;;16.00;99.90;;;;;;5071621;28;20127;-72
2021/01/13 01:30:23;;;;;;;4.15;2.10;;;16.00;99.90;;;;;;5071890;28;20877;-72
2021/01/13 01:32:49;;;;;;;4.47;2.33;;;16.00;99.90;;;;;;5071415;28;20098;-73
2021/01/13 01:35:16;;;;;;;4.13;2.28;;;15.90;99.90;;;;;;5071858;28;20020;-71
2021/01/13 01:37:43;;;;;;;4.32;2.13;;;15.90;99.90;;;;;;5071048;28;20494;-72
2021/01/13 01:40:15;;;;;;;3.28;1.77;;;15.80;99.90;;;;;;5071445;28;20212;-73
2021/01/13 01:42:48;;;;;;;6.03;2.05;;;15.90;99.90;;;;;;5071045;28;20078;-71
2021/01/13 01:45:34;;;;;;;4.60;1.85;;;15.80;99.90;;;;;;5071433;28;20476;-72
2021/01/13 01:48:02;;;;;;;3.35;2.13;;;15.80;99.90;;;;;;5071254;28;20037;-72
2021/01/13 01:50:36;;;;;;;5.15;2.10;;;15.80;99.90;;;;;;5071860;28;20066;-73
2021/01/13 01:53:13;;;;;;;4.38;2.30;;;15.70;99.90;;;;;;5071765;28;20040;-73
2021/01/13 01:56:16;;;;;;;4.50;2.17;;;15.70;99.90;;;;;;5071114;28;20392;-73
2021/01/13 01:58:48;;;;;;;4.13;2.00;;;15.70;99.90;;;;;;5071116;28;20036;-73
2021/01/13 02:01:14;;;;;;;5.80;2.20;;;15.70;99.90;;;;;;5071180;28;20039;-73
2021/01/13 02:03:46;;;;;;;5.22;2.58;;;15.70;99.90;;;;;;5071166;28;20099;-72
2021/01/13 02:06:15;;;;;;;4.13;2.20;;;15.70;99.90;;;;;;5070651;28;20044;-73
2021/01/13 02:08:41;;;;;;;3.60;2.40;;;15.60;99.90;;;;;;5069916;28;20067;-71
2021/01/13 02:11:19;;;;;;;5.65;2.58;;;15.60;99.90;;;;;;5071001;28;20025;-73
2021/01/13 02:13:45;;;;;;;4.57;2.05;;;15.60;99.90;;;;;;5070886;28;20027;-72
2021/01/13 02:16:16;;;;;;;3.83;2.17;;;15.60;99.90;;;;;;5071299;28;20082;-71
2021/01/13 02:18:43;;;;;;;5.55;2.10;;;15.50;99.90;;;;;;5069342;28;20380;-71
2021/01/13 02:21:20;;;;;;;4.93;2.35;;;15.50;99.90;;;;;;5071224;28;20040;-72
2021/01/13 02:24:18;;;;;;;4.25;2.20;;;15.50;99.90;;;;;;5070728;28;20025;-72
2021/01/13 02:27:37;;;;;;;3.80;2.30;;;15.50;99.90;;;;;;5049856;28;20501;-72
2021/01/13 02:30:07;;;;;;;5.30;2.20;;;15.50;99.90;;;;;;5046200;28;20060;-73
2021/01/13 02:32:38;;;;;;;4.47;2.20;;;15.40;99.90;;;;;;5066593;28;20055;-73
2021/01/13 02:35:15;;;;;;;4.30;2.28;;;15.40;99.90;;;;;;5070902;28;20028;-72
2021/01/13 02:38:03;;;;;;;4.22;2.17;;;15.40;99.90;;;;;;5070706;28;20507;-72
2021/01/13 02:40:30;;;;;;;4.38;2.47;;;15.40;99.90;;;;;;5068158;28;20044;-72
2021/01/13 02:43:02;;;;;;;3.95;2.13;;;15.40;99.90;;;;;;5070538;28;20524;-72
2021/01/13 02:45:30;;;;;;;5.18;2.60;;;15.30;99.90;;;;;;5071324;28;20028;-71
2021/01/13 02:47:58;;;;;;;4.45;2.03;;;15.30;99.90;;;;;;5069933;28;20048;-70
2021/01/13 02:50:28;;;;;;;4.93;2.30;;;15.30;99.90;;;;;;5070240;28;20016;-69
2021/01/13 02:53:11;;;;;;;5.07;2.08;;;15.30;99.90;;;;;;5070497;28;20353;-72
2021/01/13 02:56:00;;;;;;;4.47;2.25;;;15.30;99.90;;;;;;5070768;28;20103;-69
2021/01/13 02:58:38;;;;;;;6.00;2.30;;;15.30;99.90;;;;;;5066376;28;20091;-70
2021/01/13 03:01:10;;;;;;;4.15;2.00;;;15.30;99.90;;;;;;5070498;28;20066;-72
2021/01/13 03:03:37;;;;;;;3.20;1.80;;;15.20;99.90;;;;;;5070493;28;20016;-70
2021/01/13 03:06:07;;;;;;;3.55;2.28;;;15.20;99.90;;;;;;5070458;28;20499;-69
2021/01/13 03:08:47;;;;;;;4.00;2.05;;;15.20;99.90;;;;;;5069544;28;20024;-71
2021/01/13 03:11:18;;;;;;;3.67;2.10;;;15.20;99.90;;;;;;5070650;28;20112;-72
2021/01/13 03:13:44;;;;;;;2.88;2.00;;;15.20;99.90;;;;;;5070195;28;20024;-72
2021/01/13 03:16:14;;;;;;;4.03;2.10;;;15.20;99.90;;;;;;5070628;28;20051;-72
2021/01/13 03:19:01;;;;;;;4.63;2.20;;;15.20;99.90;;;;;;5061894;28;20020;-72
2021/01/13 03:21:34;;;;;;;5.82;2.40;;;15.10;99.90;;;;;;5073809;28;20032;-73
2021/01/13 03:24:14;;;;;;;2.90;1.92;;;15.10;99.90;;;;;;5074582;28;20029;-72
2021/01/13 03:26:47;;;;;;;4.35;2.17;;;15.10;99.90;;;;;;5073901;28;20041;-72
2021/01/13 03:29:22;;;;;;;5.10;2.22;;;15.10;99.90;;;;;;5074172;28;20060;-70
2021/01/13 03:32:06;;;;;;;6.55;2.45;;;15.10;99.90;;;;;;5074046;28;20023;-72
2021/01/13 03:34:52;;;;;;;3.50;2.20;;;15.10;99.90;;;;;;5073546;28;20021;-70
2021/01/13 03:37:25;;;;;;;5.82;2.38;;;15.10;99.90;;;;;;5074216;28;20028;-71
2021/01/13 03:39:55;;;;;;;3.65;2.10;;;15.00;99.90;;;;;;5072231;28;20032;-72
2021/01/13 03:42:22;;;;;;;2.92;2.20;;;15.00;99.90;;;;;;5074092;28;20063;-72
2021/01/13 03:44:49;;;;;;;4.72;2.33;;;15.00;99.90;;;;;;5073535;28;20033;-70
2021/01/13 03:47:35;;;;;;;4.00;2.33;;;15.00;99.90;;;;;;5073548;28;20040;-69
2021/01/13 03:50:34;;;;;;;4.03;2.28;;;14.90;99.90;;;;;;5073762;28;20033;-69
2021/01/13 03:53:02;;;;;;;6.30;1.98;;;15.00;99.90;;;;;;5073850;28;20075;-69
2021/01/13 03:55:34;;;;;;;4.63;2.20;;;15.00;99.90;;;;;;5074110;28;20017;-72
2021/01/13 03:58:08;;;;;;;4.38;2.45;;;14.90;99.90;;;;;;5072989;28;20067;-72
2021/01/13 04:00:44;;;;;;;4.57;2.33;;;14.90;99.90;;;;;;5072893;28;20024;-70
2021/01/13 04:03:22;;;;;;;6.40;2.33;;;14.90;99.90;;;;;;5073794;28;20021;-73
2021/01/13 04:06:06;;;;;;;3.78;2.00;;;14.90;99.90;;;;;;5072561;28;20029;-73
2021/01/13 04:08:37;;;;;;;;;;;14.90;99.90;;;;;;5073601;28;20408;-71
2021/01/13 04:11:06;;;;;;;5.25;2.20;;;14.90;99.90;;;;;;5073517;28;20341;-73
2021/01/13 04:13:40;;;;;;;4.07;1.98;;;14.90;99.90;;;;;;5073319;28;20167;-69
2021/01/13 04:16:08;;;;;;;4.18;2.05;;;15.00;99.90;;;;;;5073114;28;20024;-70
2021/01/13 04:18:34;;;;;;;5.80;2.50;;;14.90;99.90;;;;;;5072424;28;20377;-69
2021/01/13 04:21:00;;;;;;;5.40;2.42;;;14.90;99.90;;;;;;5073674;28;20082;-71
2021/01/13 04:23:26;;;;;;;3.95;2.13;;;14.90;99.90;;;;;;5073293;28;20095;-71
2021/01/13 04:25:52;;;;;;;4.85;2.50;;;14.90;99.90;;;;;;5072461;28;20108;-70
2021/01/13 04:28:18;;;;;;;5.38;2.10;;;14.90;99.90;;;;;;5072708;28;20488;-71
2021/01/13 04:30:44;;;;;;;6.15;2.20;;;14.90;99.90;;;;;;5073051;28;20024;-71
2021/01/13 04:33:10;;;;;;;4.45;2.28;;;14.90;99.90;;;;;;5072508;28;20477;-72
2021/01/13 04:35:36;;;;;;;4.45;1.95;;;14.90;99.90;;;;;;5072158;28;20052;-70
2021/01/13 04:38:03;;;;;;;3.15;1.60;;;14.90;99.90;;;;;;5072839;28;20056;-71
2021/01/13 04:40:29;;;;;;;4.30;2.20;;;14.90;99.90;;;;;;5072976;28;20099;-70
2021/01/13 04:43:08;;;;;;;4.18;2.03;;;14.90;99.90;;;;;;5072493;28;20127;-71
2021/01/13 04:45:45;;;;;;;3.58;1.67;;;14.80;99.90;;;;;;5072271;28;20482;-72
2021/01/13 04:48:20;;;;;;;4.93;2.20;;;14.80;99.90;;;;;;5072933;28;20501;-71
2021/01/13 04:50:48;;;;;;;5.65;2.35;;;14.90;99.90;;;;;;5072774;28;20121;-70
2021/01/13 04:53:23;;;;;;;3.50;2.10;;;14.80;99.90;;;;;;5072798;28;20032;-71
2021/01/13 04:55:55;;;;;;;4.38;2.15;;;14.80;99.90;;;;;;5071823;28;20024;-72
2021/01/13 04:58:21;;;;;;;3.00;1.73;;;14.80;99.90;;;;;;5072736;28;20021;-73
2021/01/13 05:01:24;;;;;;;5.25;2.45;;;14.80;99.90;;;;;;5072014;28;20051;-72
2021/01/13 05:04:16;;;;;;;5.28;2.00;;;14.70;99.90;;;;;;5072217;28;20047;-71
2021/01/13 05:06:49;;;;;;;3.60;2.10;;;14.70;99.90;;;;;;5063476;28;20123;-72
2021/01/13 05:09:16;;;;;;;3.78;2.00;;;14.70;99.90;;;;;;5072529;28;20024;-71
2021/01/13 05:11:47;;;;;;;3.47;1.95;;;14.70;99.90;;;;;;5072031;28;20028;-71
2021/01/13 05:14:14;;;;;;;3.25;1.75;;;14.70;99.90;;;;;;5071866;28;20032;-71
2021/01/13 05:16:59;;;;;;;3.75;1.90;;;14.70;99.90;;;;;;5071682;28;20024;-72
2021/01/13 05:19:58;;;;;;;6.85;1.70;;;14.70;99.90;;;;;;5071955;28;20025;-71
2021/01/13 05:22:25;;;;;;;6.00;1.98;;;14.70;99.90;;;;;;5071999;28;20024;-71
2021/01/13 05:24:53;;;;;;;5.60;1.90;;;14.70;99.90;;;;;;5071403;28;20063;-72
2021/01/13 05:27:57;;;;;;;3.22;1.85;;;14.70;99.90;;;;;;5071641;28;20043;-71
2021/01/13 05:30:25;;;;;;;6.95;2.13;;;14.70;99.90;;;;;;5071820;28;20024;-70
2021/01/13 05:32:55;;;;;;;3.28;1.88;;;14.70;99.90;;;;;;5071438;28;20060;-70
2021/01/13 05:35:28;;;;;;;4.50;2.13;;;14.70;99.90;;;;;;5070796;28;20049;-70
2021/01/13 05:38:04;;;;;;;5.45;2.20;;;14.70;99.90;;;;;;5071896;28;20028;-70
2021/01/13 05:40:30;;;;;;;4.43;1.77;;;14.70;99.90;;;;;;5071512;28;20033;-71
2021/01/13 05:42:59;;;;;;;6.85;2.20;;;14.60;99.90;;;;;;5070978;28;20507;-71
2021/01/13 05:45:26;;;;;;;3.75;1.90;;;14.70;99.90;;;;;;5070849;28;20482;-71
2021/01/13 05:47:56;;;;;;;3.72;2.00;;;14.70;99.90;;;;;;5071348;28;20037;-71
2021/01/13 05:50:25;;;;;;;4.10;1.85;;;14.70;99.90;;;;;;5070840;28;20190;-71
2021/01/13 05:52:53;;;;;;;3.10;1.80;;;14.60;99.90;;;;;;5071262;28;20030;-69
2021/01/13 05:55:19;;;;;;;5.13;1.70;;;14.60;99.90;;;;;;5067472;28;20060;-70
2021/01/13 05:57:57;;;;;;;3.50;1.80;;;14.60;99.90;;;;;;5070888;28;20094;-70
2021/01/13 06:00:24;;;;;;;4.68;1.73;;;14.50;99.90;;;;;;5070855;28;20016;-69
2021/01/13 06:02:59;;;;;;;3.78;2.10;;;14.50;99.90;;;;;;5070772;28;20032;-72
2021/01/13 06:05:26;;;;;;;5.90;2.03;;;14.50;99.90;;;;;;5071278;28;20175;-72
2021/01/13 06:07:53;;;;;;;6.15;1.83;;;14.50;99.90;;;;;;5070876;28;20515;-73
2021/01/13 06:10:21;;;;;;;4.25;2.00;;;14.50;99.90;;;;;;5070813;28;20047;-72
2021/01/13 06:12:48;;;;;;;4.78;1.60;;;14.50;99.90;;;;;;5071073;28;20021;-73
2021/01/13 06:15:21;;;;;;;4.00;1.60;;;14.50;99.90;;;;;;5071427;28;20124;-73
2021/01/13 06:17:55;;;;;;;5.85;2.05;;;14.50;99.90;;;;;;5070683;28;20427;-73
2021/01/13 06:20:23;;;;;;;5.07;1.80;;;14.50;99.90;;;;;;5070456;28;20033;-74
2021/01/13 06:22:50;;;;;;;4.32;1.70;;;14.40;99.90;;;;;;5071236;28;20132;-74
2021/01/13 06:25:30;;;;;;;2.55;1.70;;;14.40;99.90;;;;;;5070827;28;20043;-74
2021/01/13 06:28:30;;;;;;;4.13;1.70;;;14.40;99.90;;;;;;5071164;28;20037;-74
2021/01/13 06:31:01;;;;;;;3.47;1.75;;;14.40;99.90;;;;;;5066711;28;20108;-73
2021/01/13 06:33:36;;;;;;;3.17;1.70;;;14.40;99.90;;;;;;5070716;28;20033;-72
2021/01/13 06:36:16;;;;;;;5.07;1.73;;;14.40;99.90;;;;;;5061284;28;20032;-71
2021/01/13 06:38:54;;;;;;;2.92;1.52;;;14.40;99.90;;;;;;5070896;28;20038;-71
2021/01/13 06:41:20;;;;;;;4.05;1.83;;;14.40;99.90;;;;;;5067758;28;20113;-71
2021/01/13 06:44:00;;;;;;;3.40;1.85;;;14.40;99.90;;;;;;5068965;28;20067;-72
2021/01/13 06:46:26;;;;;;;3.00;1.63;;;14.40;99.90;;;;;;5071087;28;20029;-73
2021/01/13 06:48:54;;;;;;;5.28;1.98;;;14.40;99.90;;;;;;5070578;28;20059;-72
2021/01/13 06:51:20;;;;;;;4.18;1.58;;;14.30;99.90;;;;;;5067408;28;20448;-70
2021/01/13 06:53:47;;;;;;;3.35;1.42;;;14.30;99.90;;;;;;5070743;28;20028;-69
2021/01/13 06:56:14;;;;;;;4.93;1.90;;;14.60;99.90;;;;;;5073866;28;20163;-70
2021/01/13 06:59:00;;;;;;;11.40;2.10;;;14.80;99.90;;;;;;5074873;28;20020;-68
2021/01/13 07:01:26;;;;;;;6.28;1.95;;;14.50;99.90;;;;;;5073837;28;20029;-68
2021/01/13 07:03:59;;;;;;;4.13;1.60;;;14.80;99.90;;;;;;5073658;28;20033;-63
2021/01/13 07:06:26;;;;;;;6.63;1.67;;;14.90;99.90;;;;;;5067500;28;20040;-67
2021/01/13 07:08:52;;;;;;;7.10;2.20;;;15.10;99.90;;;;;;5072721;28;20480;-65
2021/01/13 07:11:18;;;;;;;4.50;1.52;;;15.20;99.90;;;;;;5074259;28;20024;-65
2021/01/13 07:13:55;;;;;;;4.70;1.38;;;15.30;99.90;;;;;;5074192;28;20385;-70
2021/01/13 07:16:28;;;;;;;4.53;1.33;;;15.40;99.90;;;;;;5064359;28;20028;-69
2021/01/13 07:19:01;;;;;;;5.38;1.52;;;15.50;99.90;;;;;;5074039;28;20030;-68
2021/01/13 07:21:40;;;;;;;3.38;1.40;;;15.50;99.90;;;;;;5073810;28;20043;-69
2021/01/13 07:24:16;;;;;;;4.88;1.35;;;15.60;99.90;;;;;;5074154;28;20070;-70
2021/01/13 07:26:43;;;;;;;3.17;1.42;;;15.50;99.90;;;;;;5072456;28;20089;-68
2021/01/13 07:29:09;;;;;;;4.15;1.55;;;15.50;99.90;;;;;;5074079;28;20028;-68
2021/01/13 07:31:36;;;;;;;5.47;1.90;;;15.50;99.90;;;;;;5074371;28;20027;-67
2021/01/13 07:34:11;;;;;;;4.47;1.88;;;15.50;99.90;;;;;;5074002;28;20081;-70
2021/01/13 07:36:39;;;;;;;6.30;2.15;;;15.50;99.90;;;;;;5074133;28;20027;-69
2021/01/13 07:39:07;;;;;;;5.63;2.03;;;15.40;99.90;;;;;;5073885;28;20038;-69
2021/01/13 07:41:56;;;;;;;5.90;2.80;;;15.50;99.90;;;;;;5073230;28;20146;-69
2021/01/13 07:44:43;;;;;;;6.97;2.60;;;15.50;99.90;;;;;;5073595;28;20032;-69
2021/01/13 07:47:30;;;;;;;8.15;2.90;;;15.50;99.90;;;;;;5073970;28;20037;-69
2021/01/13 07:50:13;;;;;;;7.22;2.92;;;15.50;99.90;;;;;;5072916;28;20063;-68
2021/01/13 07:52:49;;;;;;;7.85;3.00;;;15.50;99.90;;;;;;5073381;28;20038;-79
2021/01/13 07:55:19;;;;;;;5.43;2.15;;;16.00;99.90;;;;;;5073309;28;20017;-75
2021/01/13 07:57:51;;;;;;;8.52;2.58;;;17.00;99.90;;;;;;5073356;28;20035;-77
2021/01/13 08:00:37;;;;;;;4.38;2.17;;;17.90;99.90;;;;;;5073601;28;20031;-77
2021/01/13 08:03:17;;;;;;;5.35;2.00;;;18.60;99.90;;;;;;5074004;28;20496;-77
2021/01/13 08:06:24;;;;;;;7.00;2.40;;;19.00;99.90;;;;;;5073480;28;20117;-72
2021/01/13 08:09:18;;;;;;;7.05;2.42;;;18.90;99.90;;;;;;5073581;28;20048;-73
2021/01/13 08:12:05;;;;;;;6.82;2.22;;;19.10;99.90;;;;;;5073016;28;20025;-74
2021/01/13 08:15:08;;;;;;;5.00;1.92;;;19.40;99.90;;;;;;5074134;28;20056;-73
2021/01/13 08:17:50;;;;;;;7.53;2.78;;;19.90;99.90;;;;;;5073435;28;20021;-73
2021/01/13 08:21:03;;;;;;;10.38;2.30;;;20.30;99.90;;;;;;5072428;28;20048;-75
2021/01/13 08:23:40;;;;;;;14.65;2.85;;;20.60;99.90;;;;;;5073756;28;20032;-75
2021/01/13 08:26:07;;;;;;;39.03;4.80;;;20.90;99.60;;;;;;5073483;28;20032;-77
2021/01/13 08:28:42;;;;;;;37.13;3.80;;;21.10;99.30;;;;;;5073380;28;20028;-73
2021/01/13 08:31:08;;;;;;;28.38;3.80;;;21.30;98.90;;;;;;5073380;28;20029;-76
2021/01/13 08:33:39;;;;;;;27.35;3.85;;;21.30;98.70;;;;;;5073135;28;20492;-75
2021/01/13 08:36:23;;;;;;;29.05;3.67;;;21.40;98.50;;;;;;5073508;28;20025;-73
2021/01/13 08:39:12;;;;;;;29.30;3.70;;;21.50;98.30;;;;;;5070624;28;20054;-75
2021/01/13 08:41:39;;;;;;;23.27;4.00;;;21.60;98.20;;;;;;5072670;28;20036;-71
2021/01/13 08:44:10;;;;;;;25.20;3.80;;;21.80;98.00;;;;;;5072916;28;20586;-70
2021/01/13 08:47:01;;;;;;;25.98;3.53;;;21.80;97.90;;;;;;5072940;28;20036;-75
2021/01/13 08:49:29;;;;;;;20.42;4.03;;;21.20;97.80;;;;;;5073300;28;20020;-71
2021/01/13 08:52:19;;;;;;;19.73;3.53;;;20.80;98.10;;;;;;5072873;28;20025;-71
2021/01/13 08:55:14;;;;;;;14.80;2.88;;;20.90;98.30;;;;;;5072057;28;20111;-69
2021/01/13 08:57:51;;;;;;;19.05;2.97;;;21.00;98.50;;;;;;5072979;28;20032;-67
2021/01/13 09:00:18;;;;;;;13.70;3.08;;;20.90;98.10;;;;;;5072764;28;20147;-69
2021/01/13 09:03:14;;;;;;;12.40;3.08;;;21.00;98.50;;;;;;5072375;28;20031;-74
2021/01/13 09:05:41;;;;;;;12.50;2.60;;;21.10;98.10;;;;;;5072439;28;20032;-73
2021/01/13 09:08:11;;;;;;;11.43;3.28;;;21.20;98.00;;;;;;5071268;28;20041;-74
2021/01/13 09:10:51;;;;;;;14.10;2.90;;;21.20;97.80;;;;;;5072555;28;20028;-74
2021/01/13 09:13:29;;;;;;;9.60;2.88;;;21.30;97.70;;;;;;5072827;28;20052;-72
2021/01/13 09:15:56;;;;;;;7.90;2.90;;;21.20;97.70;;;;;;5072336;28;20020;-73
2021/01/13 09:18:23;;;;;;;12.05;3.05;;;21.20;97.50;;;;;;5072272;28;20392;-73
2021/01/13 09:20:50;;;;;;;12.05;2.88;;;21.10;97.60;;;;;;5072231;28;20047;-72
2021/01/13 09:23:22;;;;;;;10.15;2.97;;;21.10;97.60;;;;;;5072073;28;20095;-73
2021/01/13 09:25:55;;;;;;;11.85;3.00;;;21.20;97.50;;;;;;5071676;28;20082;-74
2021/01/13 09:28:21;;;;;;;10.30;3.13;;;21.10;97.80;;;;;;5071127;28;20422;-74
2021/01/13 09:30:48;;;;;;;10.18;2.65;;;21.20;97.70;;;;;;5071941;28;20039;-77
2021/01/13 09:33:19;;;;;;;10.65;3.00;;;21.10;97.40;;;;;;5071512;28;20431;-74
2021/01/13 09:35:57;;;;;;;8.57;2.65;;;21.00;97.30;;;;;;5071640;28;20537;-76
2021/01/13 09:38:39;;;;;;;9.10;2.65;;;21.10;97.30;;;;;;5071014;28;20036;-75
2021/01/13 09:41:08;;;;;;;7.65;2.70;;;21.20;97.10;;;;;;5071871;28;20527;-77
2021/01/13 09:43:41;;;;;;;11.60;2.70;;;21.40;96.90;;;;;;5071686;28;20457;-74
2021/01/13 09:46:28;;;;;;;7.72;2.90;;;21.50;96.80;;;;;;5072242;28;20415;-73
2021/01/13 09:48:58;;;;;;;9.80;2.75;;;21.40;96.70;;;;;;5071573;28;20100;-78
2021/01/13 09:51:23;;;;;;;8.05;2.70;;;21.40;96.70;;;;;;5071902;28;20035;-75
2021/01/13 09:53:50;;;;;;;10.77;3.08;;;21.40;96.70;;;;;;5071087;28;20481;-74
2021/01/13 09:56:16;;;;;;;8.43;2.58;;;21.50;96.70;;;;;;5071449;28;20035;-75
2021/01/13 09:58:53;;;;;;;6.88;2.72;;;21.50;96.50;;;;;;5071708;28;20028;-79
2021/01/13 10:01:21;;;;;;;5.60;2.20;;;21.60;96.40;;;;;;5071479;28;20024;-79
2021/01/13 10:03:49;;;;;;;7.60;2.78;;;21.60;96.40;;;;;;5070869;28;20381;-73
2021/01/13 10:06:27;;;;;;;7.80;2.38;;;21.60;96.30;;;;;;5071372;28;20029;-79
2021/01/13 10:08:58;;;;;;;8.93;2.63;;;21.60;96.20;;;;;;5069647;28;20028;-75
2021/01/13 10:11:26;;;;;;;7.28;2.55;;;21.70;96.20;;;;;;5068325;28;20048;-77
2021/01/13 10:14:10;;;;;;;6.25;2.60;;;21.60;96.10;;;;;;5070713;28;20055;-79
2021/01/13 10:16:44;;;;;;;5.63;2.30;;;21.70;96.10;;;;;;5069180;28;20020;-76
2021/01/13 10:19:12;;;;;;;4.72;2.10;;;21.40;96.70;;;;;;5070729;28;20066;-76
2021/01/13 10:21:44;;;;;;;6.53;2.50;;;20.70;97.00;;;;;;5068275;28;20099;-76
2021/01/13 10:24:11;;;;;;;8.55;2.25;;;20.00;97.90;;;;;;5070554;28;20030;-76
2021/01/13 10:26:42;;;;;;;8.07;2.38;;;19.50;98.50;;;;;;5070732;28;20040;-80
2021/01/13 10:29:09;;;;;;;7.03;2.20;;;19.30;99.10;;;;;;5071305;28;20036;-81
2021/01/13 10:31:35;;;;;;;4.75;2.20;;;19.00;99.50;;;;;;5071153;28;20024;-76
2021/01/13 10:34:02;;;;;;;5.75;2.22;;;18.90;99.60;;;;;;5071834;28;20028;-77
2021/01/13 10:36:34;;;;;;;4.90;1.90;;;18.80;99.90;;;;;;5071601;28;20091;-74
2021/01/13 10:39:07;;;;;;;3.72;1.55;;;18.80;99.90;;;;;;5059785;28;20484;-71
2021/01/13 10:41:36;;;;;;;4.75;2.05;;;18.70;99.90;;;;;;5070538;28;20024;-73
2021/01/13 10:44:08;;;;;;;4.88;2.10;;;18.60;99.90;;;;;;5070985;28;20079;-72
2021/01/13 10:46:51;;;;;;;5.70;1.67;;;18.50;99.90;;;;;;5071137;28;20056;-70
2021/01/13 10:49:24;;;;;;;3.33;1.70;;;18.50;99.90;;;;;;5067784;28;20032;-74
2021/01/13 10:51:51;;;;;;;5.13;1.80;;;18.40;99.90;;;;;;5070999;28;20104;-75
2021/01/13 10:54:20;;;;;;;4.63;1.60;;;18.30;99.90;;;;;;5071358;28;20028;-72
2021/01/13 10:57:06;;;;;;;5.25;1.50;;;18.30;99.90;;;;;;5066618;28;20032;-73
2021/01/13 10:59:32;;;;;;;2.63;1.30;;;18.20;99.90;;;;;;5069798;28;20028;-69
2021/01/13 11:02:14;;;;;;;3.80;1.63;;;18.20;99.90;;;;;;5069530;28;20040;-73
2021/01/13 11:04:44;;;;;;;4.60;1.27;;;18.10;99.90;;;;;;5070613;28;20090;-72
2021/01/13 11:07:14;;;;;;;3.03;1.40;;;18.10;99.90;;;;;;5056947;28;20126;-76
2021/01/13 11:09:49;;;;;;;3.15;1.70;;;18.00;99.90;;;;;;5050851;28;20021;-74
2021/01/13 11:12:23;;;;;;;4.10;1.60;;;18.00;99.90;;;;;;5051023;28;20063;-74
2021/01/13 11:14:50;;;;;;;5.63;1.55;;;18.20;99.90;;;;;;5050797;28;20020;-73
2021/01/13 11:17:26;;;;;;;3.10;1.67;;;19.00;99.90;;;;;;5052028;28;20040;-74
2021/01/13 11:19:51;;;;;;;4.60;1.70;;;20.00;99.90;;;;;;5063749;28;20351;-75
2021/01/13 11:22:18;;;;;;;4.60;2.70;;;20.30;99.90;;;;;;5069134;28;20025;-75
2021/01/13 11:24:47;;;;;;;6.47;2.80;;;19.40;99.90;;;;;;5068100;28;20479;-73
2021/01/13 11:27:21;;;;;;;8.05;2.55;;;18.90;99.90;;;;;;5070754;28;20120;-72
2021/01/13 11:29:56;;;;;;;8.15;2.88;;;18.70;99.90;;;;;;5070646;28;20025;-71
2021/01/13 11:32:26;;;;;;;5.93;2.33;;;18.50;99.90;;;;;;5058025;28;20045;-71
2021/01/13 11:34:55;;;;;;;4.43;1.98;;;18.20;99.90;;;;;;5050577;28;20631;-74
2021/01/13 11:37:51;;;;;;;4.50;2.20;;;18.10;99.90;;;;;;5050750;28;20040;-74
2021/01/13 11:40:36;;;;;;;5.00;2.13;;;18.00;99.90;;;;;;5050767;28;20025;-74
2021/01/13 11:43:13;;;;;;;5.78;2.28;;;17.90;99.90;;;;;;5053147;28;20021;-72
2021/01/13 11:45:59;;;;;;;4.78;2.22;;;17.90;99.90;;;;;;5054026;28;20061;-74
2021/01/13 11:48:31;;;;;;;6.60;2.28;;;17.90;99.90;;;;;;5058215;28;20484;-72
2021/01/13 11:51:02;;;;;;;4.57;2.60;;;17.80;99.90;;;;;;5073998;28;20057;-74
2021/01/13 11:53:32;;;;;;;3.90;2.20;;;17.70;99.90;;;;;;5073965;28;20036;-74
2021/01/13 11:56:04;;;;;;;5.00;2.45;;;17.70;99.90;;;;;;5074335;28;20019;-75
2021/01/13 11:58:30;;;;;;;5.47;2.63;;;17.60;99.90;;;;;;5069722;28;20598;-74
2021/01/13 12:00:56;;;;;;;4.10;2.03;;;17.60;99.90;;;;;;5073581;28;20025;-74
2021/01/13 12:03:23;;;;;;;5.47;2.55;;;17.60;99.90;;;;;;5074003;28;20024;-74
2021/01/13 12:05:49;;;;;;;7.50;2.65;;;17.50;99.90;;;;;;5073313;28;20032;-73
2021/01/13 12:08:20;;;;;;;5.10;2.47;;;17.50;99.90;;;;;;5074080;28;20047;-74
2021/01/13 12:10:52;;;;;;;7.95;2.70;;;17.40;99.90;;;;;;5073862;28;20096;-73
2021/01/13 12:13:18;;;;;;;7.90;2.90;;;17.40;99.90;;;;;;5074097;28;20039;-73
2021/01/13 12:16:01;;;;;;;7.65;2.53;;;17.30;99.90;;;;;;5073457;28;20095;-75
2021/01/13 12:18:36;;;;;;;5.55;2.70;;;17.30;99.90;;;;;;5074006;28;20021;-71
2021/01/13 12:21:24;;;;;;;6.75;2.88;;;17.30;99.90;;;;;;5071681;28;20024;-70
2021/01/13 12:23:53;;;;;;;6.25;2.97;;;17.20;99.90;;;;;;5073148;28;20024;-74
2021/01/13 12:26:31;;;;;;;7.40;3.20;;;17.10;99.90;;;;;;5073098;28;20052;-74
2021/01/13 12:29:08;;;;;;;7.72;3.05;;;17.10;99.90;;;;;;5073206;28;20025;-75
2021/01/13 12:31:39;;;;;;;7.38;3.30;;;17.00;99.90;;;;;;5073178;28;20096;-73
2021/01/13 12:34:14;;;;;;;8.48;3.42;;;17.00;99.90;;;;;;5073457;28;20025;-73
2021/01/13 12:36:42;;;;;;;6.05;2.90;;;17.00;99.90;;;;;;5073071;28;20025;-74
2021/01/13 12:39:08;;;;;;;7.80;3.33;;;17.00;99.90;;;;;;5073257;28;20058;-74
2021/01/13 12:41:39;;;;;;;6.20;2.90;;;16.90;99.90;;;;;;5073245;28;20048;-78
2021/01/13 12:44:06;;;;;;;5.47;2.70;;;17.00;99.90;;;;;;5059309;28;20025;-75
2021/01/13 12:46:37;;;;;;;4.95;2.90;;;17.00;99.90;;;;;;5055396;28;20121;-72
2021/01/13 12:49:04;;;;;;;5.40;3.22;;;16.90;99.90;;;;;;5064482;28;20028;-74
2021/01/13 12:51:30;;;;;;;5.88;2.83;;;16.90;99.90;;;;;;5073425;28;20522;-80
2021/01/13 12:53:58;;;;;;;7.65;3.05;;;16.90;99.90;;;;;;5072578;28;20036;-73
2021/01/13 12:56:28;;;;;;;8.27;3.45;;;16.90;99.90;;;;;;5072939;28;20426;-77
2021/01/13 12:58:55;;;;;;;8.30;3.08;;;16.80;99.90;;;;;;5064765;28;20461;-70
2021/01/13 13:01:21;;;;;;;8.75;2.97;;;16.80;99.90;;;;;;5053122;28;20082;-74
2021/01/13 13:03:48;;;;;;;5.88;2.90;;;16.80;99.90;;;;;;5052683;28;20358;-71
2021/01/13 13:06:26;;;;;;;5.60;2.88;;;16.70;99.90;;;;;;5069731;28;20116;-75
2021/01/13 13:08:52;;;;;;;7.60;3.08;;;16.70;99.90;;;;;;5071335;28;20032;-74
2021/01/13 13:11:18;;;;;;;5.25;3.00;;;16.70;99.90;;;;;;5067972;28;20025;-74
2021/01/13 13:13:43;;;;;;;5.57;3.20;;;16.60;99.90;;;;;;5052332;28;20025;-74
2021/01/13 13:16:09;;;;;;;5.68;2.70;;;16.60;99.90;;;;;;5061835;28;20107;-73